1873 NOT_NAMED (1873032S12076)


IBTrACS version v04r00. Visit IBTrACS website for data access.
Please direct all questions to the IBTrACS Q and A forum

Storm track - Intensity - Wind Radii - Intensity Data - Source Data - All data

Summary Information

Storm ID 1873032S12076
Start Feb 1 06Z
End Feb 10 06Z
ATCF IDs
Track status Best track data.

Storm track plot

Map of storm track

Intensity plots

No Intensity information for this storm


Radial wind information

No radial wind information for this storm


Position and Intensity Table

BASIN ISO_TIME_________ NATURE LAT LON
degrees north degrees east
SI 1873-02-01 06:00:00 NR -11.80 76.20
SI 09:00:00 NR -11.93 76.01
SI 12:00:00 NR -12.07 75.81
SI 15:00:00 NR -12.21 75.61
SI 18:00:00 NR -12.36 75.40
SI 21:00:00 NR -12.52 75.17
SI 1873-02-02 00:00:00 NR -12.69 74.94
SI 03:00:00 NR -12.89 74.68
SI 06:00:00 NR -13.10 74.40
SI 09:00:00 NR -13.34 74.10
SI 12:00:00 NR -13.59 73.78
SI 15:00:00 NR -13.87 73.44
SI 18:00:00 NR -14.17 73.08
SI 21:00:00 NR -14.48 72.72
SI 1873-02-03 00:00:00 NR -14.81 72.35
SI 03:00:00 NR -15.15 71.97
SI 06:00:00 NR -15.50 71.60
SI 09:00:00 NR -15.85 71.23
SI 12:00:00 NR -16.21 70.85
SI 15:00:00 NR -16.59 70.48
SI 18:00:00 NR -16.98 70.10
SI 21:00:00 NR -17.37 69.74
SI 1873-02-04 00:00:00 NR -17.78 69.38
SI 03:00:00 NR -18.19 69.03
SI 06:00:00 NR -18.60 68.70
SI 09:00:00 NR -19.04 68.36
SI 12:00:00 NR -19.49 68.03
SI 15:00:00 NR -19.94 67.72
SI 18:00:00 NR -20.39 67.42
SI 21:00:00 NR -20.83 67.15
SI 1873-02-05 00:00:00 NR -21.25 66.90
SI 03:00:00 NR -21.64 66.68
SI 06:00:00 NR -22.00 66.50
SI 09:00:00 NR -22.31 66.35
SI 12:00:00 NR -22.58 66.23
SI 15:00:00 NR -22.83 66.15
SI 18:00:00 NR -23.06 66.09
SI 21:00:00 NR -23.28 66.05
SI 1873-02-06 00:00:00 NR -23.48 66.02
SI 03:00:00 NR -23.69 66.01
SI 06:00:00 NR -23.90 66.00
SI 09:00:00 NR -24.12 65.94
SI 12:00:00 NR -24.33 65.89
SI 15:00:00 NR -24.55 65.85
SI 18:00:00 NR -24.77 65.83
SI 21:00:00 NR -25.01 65.81
SI 1873-02-07 00:00:00 NR -25.25 65.82
SI 03:00:00 NR -25.52 65.85
SI 06:00:00 NR -25.80 65.90
SI 09:00:00 NR -26.13 65.96
SI 12:00:00 NR -26.48 66.05
SI 15:00:00 NR -26.85 66.16
SI 18:00:00 NR -27.23 66.29
SI 21:00:00 NR -27.61 66.45
SI 1873-02-08 00:00:00 NR -27.98 66.64
SI 03:00:00 NR -28.35 66.86
SI 06:00:00 NR -28.70 67.10
SI 09:00:00 NR -29.04 67.38
SI 12:00:00 NR -29.36 67.70
SI 15:00:00 NR -29.67 68.04
SI 18:00:00 NR -29.96 68.40
SI 21:00:00 NR -30.23 68.76
SI 1873-02-09 00:00:00 NR -30.48 69.13
SI 03:00:00 NR -30.70 69.47
SI 06:00:00 NR -30.90 69.80
SI 09:00:00 NR -31.07 70.10
SI 12:00:00 NR -31.21 70.36
SI 15:00:00 NR -31.32 70.61
SI 18:00:00 NR -31.42 70.83
SI 21:00:00 NR -31.50 71.04
SI 1873-02-10 00:00:00 NR -31.58 71.23
SI 03:00:00 NR -31.64 71.42
SI 06:00:00 NR -31.70 71.60

Source Information

Agency Information
USA
TOKYO
CMA
HKO
NEWDELHI
REUNION WMO-Best-Tracks.txt:Line=984:xxxx873144
BOM
NADI
WELLINGTON
DS824
TD9636
TD9635
NEUMANN
MLC

All available IBTrACS Data

SEASON BASIN SUBBASIN ISO_TIME_________ NATURE LAT LON WMO AGENCY DIST2LAND LANDFALL IFLAG USA SSHS REUNION LAT REUNION LON REUNION TYPE REUNION TNUM STORM SPEED STORM DIR
Year degrees north degrees east km km 1 degrees north degrees east 1 kts degrees
1873 SI MM 1873-02-01 06:00:00 NR -11.80 76.20 reunion 2042 2042 _____O________ -1 -11.80 76.20 99 9.90 5 235
1873 SI MM 09:00:00 NR -11.93 76.01 2058 2058 _____P________ -1 -11.93 76.01 99 5 235
1873 SI MM 12:00:00 NR -12.07 75.81 2085 2085 _____P________ -1 -12.07 75.81 99 5 235
1873 SI MM 15:00:00 NR -12.21 75.61 2102 2079 _____P________ -1 -12.21 75.61 99 5 234
1873 SI MM 18:00:00 NR -12.36 75.40 2073 2049 _____P________ -1 -12.36 75.40 99 5 234
1873 SI MM 21:00:00 NR -12.52 75.17 2049 2010 _____P________ -1 -12.52 75.17 99 6 233
1873 SI MM 1873-02-02 00:00:00 NR -12.69 74.94 2010 1980 _____P________ -1 -12.69 74.94 99 6 233
1873 SI MM 03:00:00 NR -12.89 74.68 1980 1941 _____P________ -1 -12.89 74.68 99 7 232
1873 SI MM 06:00:00 NR -13.10 74.40 reunion 1941 1902 _____O________ -1 -13.10 74.40 99 9.90 7 232
1873 SI MM 09:00:00 NR -13.34 74.10 1902 1858 _____P________ -1 -13.34 74.10 99 8 231
1873 SI MM 12:00:00 NR -13.59 73.78 1858 1814 _____P________ -1 -13.59 73.78 99 8 230
1873 SI MM 15:00:00 NR -13.87 73.44 1804 1766 _____P________ -1 -13.87 73.44 99 9 230
1873 SI MM 18:00:00 NR -14.17 73.08 1761 1708 _____P________ -1 -14.17 73.08 99 9 229
1873 SI MM 21:00:00 NR -14.48 72.72 1708 1664 _____P________ -1 -14.48 72.72 99 10 228
1873 SI MM 1873-02-03 00:00:00 NR -14.81 72.35 1655 1612 _____P________ -1 -14.81 72.35 99 10 227
1873 SI MM 03:00:00 NR -15.15 71.97 1612 1555 _____P________ -1 -15.15 71.97 99 10 226
1873 SI MM 06:00:00 NR -15.50 71.60 reunion 1555 1502 _____O________ -1 -15.50 71.60 99 9.90 10 226
1873 SI MM 09:00:00 NR -15.85 71.23 1502 1456 _____P________ -1 -15.85 71.23 99 10 225
1873 SI MM 12:00:00 NR -16.21 70.85 1456 1401 _____P________ -1 -16.21 70.85 99 10 224
1873 SI MM 15:00:00 NR -16.59 70.48 1401 1347 _____P________ -1 -16.59 70.48 99 11 223
1873 SI MM 18:00:00 NR -16.98 70.10 1347 1306 _____P________ -1 -16.98 70.10 99 11 222
1873 SI MM 21:00:00 NR -17.37 69.74 1293 1250 _____P________ -1 -17.37 69.74 99 11 221
1873 SI MM 1873-02-04 00:00:00 NR -17.78 69.38 1250 1209 _____P________ -1 -17.78 69.38 99 11 220
1873 SI MM 03:00:00 NR -18.19 69.03 1198 1158 _____P________ -1 -18.19 69.03 99 11 218
1873 SI MM 06:00:00 NR -18.60 68.70 reunion 1158 1119 _____O________ -1 -18.60 68.70 99 9.90 11 217
1873 SI MM 09:00:00 NR -19.04 68.36 1119 1080 _____P________ -1 -19.04 68.36 99 11 215
1873 SI MM 12:00:00 NR -19.49 68.03 1069 1034 _____P________ -1 -19.49 68.03 99 11 214
1873 SI MM 15:00:00 NR -19.94 67.72 1034 1000 _____P________ -1 -19.94 67.72 99 11 212
1873 SI MM 18:00:00 NR -20.39 67.42 1000 979 _____P________ -1 -20.39 67.42 99 10 211
1873 SI MM 21:00:00 NR -20.83 67.15 969 951 _____P________ -1 -20.83 67.15 99 10 210
1873 SI MM 1873-02-05 00:00:00 NR -21.25 66.90 951 933 _____P________ -1 -21.25 66.90 99 9 208
1873 SI MM 03:00:00 NR -21.64 66.68 935 919 _____P________ -1 -21.64 66.68 99 8 206
1873 SI MM 06:00:00 NR -22.00 66.50 reunion 921 913 _____O________ -1 -22.00 66.50 99 9.90 7 205
1873 SI MM 09:00:00 NR -22.31 66.35 908 903 _____P________ -1 -22.31 66.35 99 6 203
1873 SI MM 12:00:00 NR -22.58 66.23 906 906 _____P________ -1 -22.58 66.23 99 6 200
1873 SI MM 15:00:00 NR -22.83 66.15 902 902 _____P________ -1 -22.83 66.15 99 5 195
1873 SI MM 18:00:00 NR -23.06 66.09 912 912 _____P________ -1 -23.06 66.09 99 5 191
1873 SI MM 21:00:00 NR -23.28 66.05 910 910 _____P________ -1 -23.28 66.05 99 4 188
1873 SI MM 1873-02-06 00:00:00 NR -23.48 66.02 918 918 _____P________ -1 -23.48 66.02 99 4 184
1873 SI MM 03:00:00 NR -23.69 66.01 926 926 _____P________ -1 -23.69 66.01 99 4 0
1873 SI MM 06:00:00 NR -23.90 66.00 reunion 934 934 _____O________ -1 -23.90 66.00 99 9.90 4 188
1873 SI MM 09:00:00 NR -24.12 65.94 934 934 _____P________ -1 -24.12 65.94 99 4 192
1873 SI MM 12:00:00 NR -24.33 65.89 943 943 _____P________ -1 -24.33 65.89 99 4 190
1873 SI MM 15:00:00 NR -24.55 65.85 958 949 _____P________ -1 -24.55 65.85 99 4 189
1873 SI MM 18:00:00 NR -24.77 65.83 959 959 _____P________ -1 -24.77 65.83 99 5 184
1873 SI MM 21:00:00 NR -25.01 65.81 970 970 _____P________ -1 -25.01 65.81 99 5 0
1873 SI MM 1873-02-07 00:00:00 NR -25.25 65.82 987 987 _____P________ -1 -25.25 65.82 99 5 176
1873 SI MM 03:00:00 NR -25.52 65.85 999 999 _____P________ -1 -25.52 65.85 99 6 172
1873 SI MM 06:00:00 NR -25.80 65.90 reunion 1025 1025 _____O________ -1 -25.80 65.90 99 9.90 6 170
1873 SI MM 09:00:00 NR -26.13 65.96 1052 1052 _____P________ -1 -26.13 65.96 99 7 169
1873 SI MM 12:00:00 NR -26.48 66.05 1078 1078 _____P________ -1 -26.48 66.05 99 7 166
1873 SI MM 15:00:00 NR -26.85 66.16 1114 1114 _____P________ -1 -26.85 66.16 99 8 163
1873 SI MM 18:00:00 NR -27.23 66.29 1150 1150 _____P________ -1 -27.23 66.29 99 8 161
1873 SI MM 21:00:00 NR -27.61 66.45 1193 1193 _____P________ -1 -27.61 66.45 99 8 158
1873 SI MM 1873-02-08 00:00:00 NR -27.98 66.64 1230 1230 _____P________ -1 -27.98 66.64 99 8 154
1873 SI MM 03:00:00 NR -28.35 66.86 1281 1281 _____P________ -1 -28.35 66.86 99 8 151
1873 SI MM 06:00:00 NR -28.70 67.10 reunion 1318 1318 _____O________ -1 -28.70 67.10 99 9.90 8 146
1873 SI MM 09:00:00 NR -29.04 67.38 1362 1362 _____P________ -1 -29.04 67.38 99 8 141
1873 SI MM 12:00:00 NR -29.36 67.70 1414 1414 _____P________ -1 -29.36 67.70 99 9 138
1873 SI MM 15:00:00 NR -29.67 68.04 1458 1458 _____P________ -1 -29.67 68.04 99 9 135
1873 SI MM 18:00:00 NR -29.96 68.40 1509 1509 _____P________ -1 -29.96 68.40 99 8 132
1873 SI MM 21:00:00 NR -30.23 68.76 1552 1552 _____P________ -1 -30.23 68.76 99 8 130
1873 SI MM 1873-02-09 00:00:00 NR -30.48 69.13 1596 1596 _____P________ -1 -30.48 69.13 99 8 128
1873 SI MM 03:00:00 NR -30.70 69.47 1639 1639 _____P________ -1 -30.70 69.47 99 7 126
1873 SI MM 06:00:00 NR -30.90 69.80 reunion 1676 1676 _____O________ -1 -30.90 69.80 99 9.90 6 124
1873 SI MM 09:00:00 NR -31.07 70.10 1712 1712 _____P________ -1 -31.07 70.10 99 6 122
1873 SI MM 12:00:00 NR -31.21 70.36 1741 1741 _____P________ -1 -31.21 70.36 99 5 120
1873 SI MM 15:00:00 NR -31.32 70.61 1762 1762 _____P________ -1 -31.32 70.61 99 5 118
1873 SI MM 18:00:00 NR -31.42 70.83 1784 1784 _____P________ -1 -31.42 70.83 99 4 116
1873 SI MM 21:00:00 NR -31.50 71.04 1806 1806 _____P________ -1 -31.50 71.04 99 4 114
1873 SI MM 1873-02-10 00:00:00 NR -31.58 71.23 1827 1827 _____P________ -1 -31.58 71.23 99 4 113
1873 SI MM 03:00:00 NR -31.64 71.42 1842 1842 _____P________ -1 -31.64 71.42 99 3 112
1873 SI MM 06:00:00 NR -31.70 71.60 reunion 1864 _____O________ -1 -31.70 71.60 99 9.90 3 112